Time;durP1;ratioP1;P1;durP2;ratioP2;P2;SDS_P1;SDS_P2;PMS_P1;PMS_P2;Temp;Humidity;BMP_temperature;BMP_pressure;BME280_temperature;BME280_humidity;BME280_pressure;Samples;Min_cycle;Max_cycle;Signal;HPM_P1;HPM_P2
2023/06/23 00:03:38;;;;;;;15.27;9.67;;;;;;;;;;10545377;28;20221;-73
2023/06/23 00:08:39;;;;;;;20.23;11.30;;;;;;;;;;10545290;28;20028;-71
2023/06/23 00:13:39;;;;;;;14.77;8.80;;;;;;;;;;10545012;28;20069;-71
2023/06/23 00:18:39;;;;;;;19.20;10.37;;;;;;;;;;10545177;28;20012;-72
2023/06/23 00:23:40;;;;;;;18.10;10.00;;;;;;;;;;10544925;28;20042;-72
2023/06/23 00:28:40;;;;;;;16.60;9.40;;;;;;;;;;10526263;28;20023;-72
2023/06/23 00:33:40;;;;;;;13.93;9.20;;;;;;;;;;10544444;28;20332;-72
2023/06/23 00:38:40;;;;;;;16.38;10.38;;;;;;;;;;10544407;28;20023;-72
2023/06/23 00:43:42;;;;;;;18.13;11.18;;;;;;;;;;10525078;28;20351;-72
2023/06/23 00:48:42;;;;;;;17.10;11.40;;;;;;;;;;10548118;28;20087;-72
2023/06/23 00:53:47;;;;;;;34.80;10.77;;;;;;;;;;10543473;28;20027;-72
2023/06/23 00:58:47;;;;;;;23.33;11.20;;;;;;;;;;10549073;28;20020;-72
2023/06/23 01:03:48;;;;;;;15.98;9.45;;;;;;;;;;10537298;28;20024;-72
2023/06/23 01:08:53;;;;;;;18.73;9.80;;;;;;;;;;10543282;28;20339;-72
2023/06/23 01:14:01;;;;;;;17.92;10.35;;;;;;;;;;10542810;28;20065;-72
2023/06/23 01:19:20;;;;;;;12.95;9.13;;;;;;;;;;10534322;28;20168;-72
2023/06/23 01:24:23;;;;;;;16.92;9.43;;;;;;;;;;10538562;28;20059;-72
2023/06/23 01:29:31;;;;;;;21.42;9.45;;;;;;;;;;10542552;28;20317;-72
2023/06/23 01:34:36;;;;;;;14.82;9.85;;;;;;;;;;10542666;28;20023;-73
2023/06/23 01:39:38;;;;;;;20.45;10.77;;;;;;;;;;10542101;28;20047;-73
2023/06/23 01:44:41;;;;;;;15.35;10.52;;;;;;;;;;10542079;28;20317;-73
2023/06/23 01:49:42;;;;;;;17.90;11.15;;;;;;;;;;10541854;28;20302;-72
2023/06/23 01:54:43;;;;;;;18.58;10.63;;;;;;;;;;10541583;28;20036;-74
2023/06/23 01:59:44;;;;;;;16.63;9.90;;;;;;;;;;10541389;28;20286;-72
2023/06/23 02:04:45;;;;;;;23.88;12.07;;;;;;;;;;10541981;28;20295;-73
2023/06/23 02:09:46;;;;;;;18.42;12.00;;;;;;;;;;10540336;28;20081;-73
2023/06/23 02:14:47;;;;;;;21.55;12.90;;;;;;;;;;10540668;28;20057;-73
2023/06/23 02:19:48;;;;;;;22.48;11.93;;;;;;;;;;10540448;28;20209;-73
2023/06/23 02:24:49;;;;;;;255.02;231.73;;;;;;;;;;10540625;28;20055;-73
2023/06/23 02:29:49;;;;;;;624.45;570.90;;;;;;;;;;10539978;28;20088;-73
2023/06/23 02:34:50;;;;;;;234.45;218.98;;;;;;;;;;10520852;28;20016;-73
2023/06/23 02:39:53;;;;;;;788.58;709.80;;;;;;;;;;10540475;28;20237;-74
2023/06/23 02:45:02;;;;;;;724.85;657.38;;;;;;;;;;10539590;28;20293;-72
2023/06/23 02:50:04;;;;;;;16.67;11.07;;;;;;;;;;10539737;28;20074;-72
2023/06/23 02:55:05;;;;;;;17.20;11.18;;;;;;;;;;10539482;28;20024;-73
2023/06/23 03:00:19;;;;;;;18.85;10.10;;;;;;;;;;10539577;28;20201;-73
2023/06/23 03:05:21;;;;;;;19.75;11.02;;;;;;;;;;10539791;28;20073;-73
2023/06/23 03:10:21;;;;;;;22.73;11.77;;;;;;;;;;10539217;28;20221;-73
2023/06/23 03:15:21;;;;;;;727.70;661.57;;;;;;;;;;10540255;28;20028;-73
2023/06/23 03:20:24;;;;;;;23.03;11.60;;;;;;;;;;10539202;28;20475;-73
2023/06/23 03:25:28;;;;;;;23.63;11.38;;;;;;;;;;10488405;28;20032;-73
2023/06/23 03:30:40;;;;;;;18.33;11.05;;;;;;;;;;10511012;28;20031;-73
2023/06/23 03:35:42;;;;;;;277.60;255.13;;;;;;;;;;10538800;28;20020;-73
2023/06/23 03:40:45;;;;;;;20.60;11.63;;;;;;;;;;10525457;28;20087;-73
2023/06/23 03:45:47;;;;;;;28.50;17.63;;;;;;;;;;10546388;28;20026;-73
2023/06/23 03:50:50;;;;;;;18.30;11.25;;;;;;;;;;10546068;28;20027;-73
2023/06/23 03:55:50;;;;;;;21.52;12.38;;;;;;;;;;10546067;28;20290;-73
2023/06/23 04:00:51;;;;;;;20.25;12.35;;;;;;;;;;10545805;28;20016;-73
2023/06/23 04:05:53;;;;;;;19.65;11.75;;;;;;;;;;10545894;28;20313;-73
2023/06/23 04:10:55;;;;;;;40.90;34.72;;;;;;;;;;10518349;28;20020;-73
2023/06/23 04:15:56;;;;;;;21.77;17.25;;;;;;;;;;10543441;28;20016;-73
2023/06/23 04:20:57;;;;;;;23.55;11.20;;;;;;;;;;10545233;28;20044;-73
2023/06/23 04:25:58;;;;;;;17.05;10.38;;;;;;;;;;10544495;28;20272;-73
2023/06/23 04:31:01;;;;;;;182.38;162.38;;;;;;;;;;10544540;28;20202;-72
2023/06/23 04:36:09;;;;;;;19.73;11.10;;;;;;;;;;10544372;28;20028;-73
2023/06/23 04:41:09;;;;;;;;;;;;;;;;;;10544713;28;20016;-72
2023/06/23 04:46:11;;;;;;;16.95;11.02;;;;;;;;;;10544243;28;20186;-73
2023/06/23 04:51:13;;;;;;;16.52;10.75;;;;;;;;;;10518746;28;20108;-73
2023/06/23 04:56:16;;;;;;;19.45;10.07;;;;;;;;;;10524491;28;20023;-72
2023/06/23 05:01:17;;;;;;;17.83;11.43;;;;;;;;;;10543452;28;20318;-73
2023/06/23 05:06:18;;;;;;;18.02;9.93;;;;;;;;;;10543230;28;20070;-73
2023/06/23 05:11:19;;;;;;;15.18;9.82;;;;;;;;;;10522605;28;20019;-72
2023/06/23 05:16:21;;;;;;;14.95;10.00;;;;;;;;;;10542454;28;20103;-73
2023/06/23 05:21:23;;;;;;;12.70;8.88;;;;;;;;;;10524457;28;20141;-72
2023/06/23 05:26:25;;;;;;;16.42;10.13;;;;;;;;;;10542894;28;20016;-73
2023/06/23 05:31:26;;;;;;;14.07;8.32;;;;;;;;;;10541203;28;20028;-71
2023/06/23 05:36:28;;;;;;;14.15;9.32;;;;;;;;;;10522058;28;20221;-73
2023/06/23 05:41:29;;;;;;;15.95;8.93;;;;;;;;;;10541445;28;20083;-73
2023/06/23 05:46:31;;;;;;;15.93;10.07;;;;;;;;;;10535509;28;20027;-73
2023/06/23 05:51:32;;;;;;;12.20;8.70;;;;;;;;;;10514204;28;20155;-73
2023/06/23 05:56:34;;;;;;;18.42;8.63;;;;;;;;;;10540973;28;20024;-73
2023/06/23 06:01:38;;;;;;;11.52;8.07;;;;;;;;;;10540251;28;20138;-73
2023/06/23 06:06:39;;;;;;;20.13;8.55;;;;;;;;;;10539513;28;20024;-73
2023/06/23 06:11:40;;;;;;;16.77;9.02;;;;;;;;;;10540530;28;20056;-72
2023/06/23 06:16:42;;;;;;;15.90;9.18;;;;;;;;;;10540568;28;20020;-73
2023/06/23 06:21:43;;;;;;;16.52;8.90;;;;;;;;;;10537091;28;20069;-73
2023/06/23 06:26:44;;;;;;;17.65;8.98;;;;;;;;;;10539328;28;20089;-73
2023/06/23 06:31:47;;;;;;;21.55;9.77;;;;;;;;;;10539886;28;20020;-73
2023/06/23 06:36:47;;;;;;;318.05;288.15;;;;;;;;;;10540051;28;20084;-73
2023/06/23 06:41:48;;;;;;;389.75;351.10;;;;;;;;;;10520913;28;20175;-73
2023/06/23 06:46:50;;;;;;;13.82;9.65;;;;;;;;;;10539554;28;20067;-73
2023/06/23 06:51:51;;;;;;;15.27;9.27;;;;;;;;;;10520893;28;20295;-73
2023/06/23 06:56:51;;;;;;;12.75;9.52;;;;;;;;;;10539252;28;20142;-73
2023/06/23 07:01:52;;;;;;;16.38;9.23;;;;;;;;;;10539124;28;20012;-73
2023/06/23 07:06:53;;;;;;;11.90;7.70;;;;;;;;;;10539084;28;20027;-73
2023/06/23 07:11:56;;;;;;;13.38;8.05;;;;;;;;;;10538835;28;20049;-73
2023/06/23 07:16:57;;;;;;;11.50;8.35;;;;;;;;;;10541856;28;20296;-73
2023/06/23 07:21:57;;;;;;;11.80;8.10;;;;;;;;;;10528971;28;20055;-73
2023/06/23 07:26:57;;;;;;;11.83;6.23;;;;;;;;;;10547181;28;20023;-73
2023/06/23 07:31:58;;;;;;;12.50;7.05;;;;;;;;;;10547010;28;20345;-74
2023/06/23 07:36:58;;;;;;;9.70;6.97;;;;;;;;;;10527880;28;20551;-73
2023/06/23 07:41:59;;;;;;;10.13;6.83;;;;;;;;;;10546028;28;20054;-73
2023/06/23 07:46:59;;;;;;;10.73;7.13;;;;;;;;;;10545806;28;20043;-73
2023/06/23 07:52:00;;;;;;;10.48;6.75;;;;;;;;;;10544900;28;20018;-73
2023/06/23 07:57:01;;;;;;;146.80;135.55;;;;;;;;;;10545030;28;20055;-73
2023/06/23 08:02:01;;;;;;;10.65;6.63;;;;;;;;;;10544797;28;20314;-73
2023/06/23 08:07:02;;;;;;;15.23;6.78;;;;;;;;;;10545727;28;20024;-73
2023/06/23 08:12:02;;;;;;;9.65;6.80;;;;;;;;;;10545162;28;20016;-73
2023/06/23 08:17:03;;;;;;;12.93;6.00;;;;;;;;;;10545315;28;20023;-73
2023/06/23 08:22:03;;;;;;;10.50;5.67;;;;;;;;;;10544732;28;20308;-73
2023/06/23 08:27:03;;;;;;;10.37;6.30;;;;;;;;;;10543433;28;20240;-73
2023/06/23 08:32:04;;;;;;;15.73;5.70;;;;;;;;;;10544525;28;20020;-73
2023/06/23 08:37:04;;;;;;;11.47;6.03;;;;;;;;;;10544692;28;20027;-73
2023/06/23 08:42:05;;;;;;;9.40;5.43;;;;;;;;;;10544751;28;20383;-73
2023/06/23 08:47:06;;;;;;;10.05;5.82;;;;;;;;;;10543670;28;20365;-73
2023/06/23 08:52:07;;;;;;;5.75;4.82;;;;;;;;;;10549561;28;20027;-73
2023/06/23 08:57:08;;;;;;;14.38;5.80;;;;;;;;;;10525865;28;20034;-73
2023/06/23 09:02:08;;;;;;;10.33;5.60;;;;;;;;;;10542931;28;20058;-73
2023/06/23 09:07:08;;;;;;;12.55;6.18;;;;;;;;;;10543131;28;20047;-73
2023/06/23 09:12:10;;;;;;;10.82;5.97;;;;;;;;;;10540334;28;20077;-73
2023/06/23 09:17:10;;;;;;;9.50;5.30;;;;;;;;;;10548927;28;20028;-73
2023/06/23 09:22:12;;;;;;;8.75;4.85;;;;;;;;;;10539435;28;20032;-72
2023/06/23 09:27:12;;;;;;;8.10;4.78;;;;;;;;;;10539751;28;20024;-72
2023/06/23 09:32:12;;;;;;;10.80;5.40;;;;;;;;;;10540102;28;20329;-73
2023/06/23 09:37:13;;;;;;;7.45;4.95;;;;;;;;;;10542031;28;20012;-72
2023/06/23 09:42:14;;;;;;;99.60;92.53;;;;;;;;;;10541644;28;20039;-72
2023/06/23 09:47:15;;;;;;;101.63;93.47;;;;;;;;;;10541465;28;20100;-72
2023/06/23 09:52:26;;;;;;;173.45;158.93;;;;;;;;;;10541132;28;20024;-73
2023/06/23 09:57:26;;;;;;;9.45;4.68;;;;;;;;;;10540213;28;20028;-73
2023/06/23 10:02:29;;;;;;;534.50;490.23;;;;;;;;;;10540778;28;20016;-72
2023/06/23 10:07:30;;;;;;;771.05;705.05;;;;;;;;;;10541091;28;20116;-72
2023/06/23 10:12:32;;;;;;;403.05;369.50;;;;;;;;;;10540232;28;20088;-73
2023/06/23 10:17:32;;;;;;;1057.97;967.17;;;;;;;;;;10540416;28;20024;-72
2023/06/23 10:22:33;;;;;;;1061.28;968.25;;;;;;;;;;10540697;28;20215;-72
2023/06/23 10:27:35;;;;;;;1127.90;999.90;;;;;;;;;;10540909;28;20020;-72
2023/06/23 10:32:36;;;;;;;1151.28;999.90;;;;;;;;;;10540559;28;20047;-72
2023/06/23 10:37:38;;;;;;;1140.72;999.90;;;;;;;;;;10539253;28;20330;-72
2023/06/23 10:42:39;;;;;;;1129.57;999.90;;;;;;;;;;10543559;28;20055;-72
2023/06/23 10:47:40;;;;;;;1131.80;999.90;;;;;;;;;;10539356;28;20039;-72
2023/06/23 10:52:41;;;;;;;1137.65;999.90;;;;;;;;;;10538685;28;20234;-72
2023/06/23 10:57:42;;;;;;;1135.18;999.90;;;;;;;;;;10539208;28;20214;-72
2023/06/23 11:02:52;;;;;;;1157.28;999.90;;;;;;;;;;10539686;28;20016;-72
2023/06/23 11:08:02;;;;;;;9.88;5.20;;;;;;;;;;10538949;28;20206;-72
2023/06/23 11:13:11;;;;;;;10.18;5.93;;;;;;;;;;10538819;28;20035;-72
2023/06/23 11:18:11;;;;;;;8.07;5.47;;;;;;;;;;10539072;28;20488;-72
2023/06/23 11:23:12;;;;;;;10.80;5.63;;;;;;;;;;10538694;28;20032;-72
2023/06/23 11:28:22;;;;;;;12.00;6.43;;;;;;;;;;10539041;28;20031;-72
2023/06/23 11:33:26;;;;;;;14.50;6.88;;;;;;;;;;10521170;28;20027;-72
2023/06/23 11:38:29;;;;;;;11.50;5.30;;;;;;;;;;10539380;28;20095;-72
2023/06/23 11:43:33;;;;;;;16.38;6.00;;;;;;;;;;10538963;28;20298;-72
2023/06/23 11:48:36;;;;;;;10.50;5.95;;;;;;;;;;10539102;28;20038;-72
2023/06/23 11:53:36;;;;;;;1025.72;942.30;;;;;;;;;;10519824;28;20095;-72
2023/06/23 11:58:37;;;;;;;12.60;6.38;;;;;;;;;;10538449;28;20024;-72
2023/06/23 12:03:38;;;;;;;17.45;7.35;;;;;;;;;;10532043;28;20016;-72
2023/06/23 12:08:39;;;;;;;12.60;6.03;;;;;;;;;;10536747;28;20298;-72
2023/06/23 12:13:39;;;;;;;12.97;5.87;;;;;;;;;;10545253;28;20019;-72
2023/06/23 12:18:45;;;;;;;13.43;6.18;;;;;;;;;;10545076;28;20024;-72
2023/06/23 12:23:46;;;;;;;8.63;5.70;;;;;;;;;;10544781;28;20047;-72
2023/06/23 12:28:46;;;;;;;11.27;6.00;;;;;;;;;;10545333;28;20362;-72
2023/06/23 12:33:49;;;;;;;17.13;6.18;;;;;;;;;;10544680;28;20063;-72
2023/06/23 12:38:54;;;;;;;14.40;6.10;;;;;;;;;;10549046;28;20222;-73
2023/06/23 12:43:55;;;;;;;12.52;6.53;;;;;;;;;;10544731;28;20015;-71
2023/06/23 12:48:55;;;;;;;13.80;5.70;;;;;;;;;;10543990;28;20043;-72
2023/06/23 12:53:55;;;;;;;20.83;6.80;;;;;;;;;;10544338;28;20050;-72
2023/06/23 12:58:57;;;;;;;13.02;7.05;;;;;;;;;;10543621;28;20020;-72
2023/06/23 13:03:57;;;;;;;10.70;5.65;;;;;;;;;;10543460;28;20031;-72
2023/06/23 13:08:59;;;;;;;12.55;6.03;;;;;;;;;;10543201;28;20117;-72
2023/06/23 13:13:59;;;;;;;13.02;6.05;;;;;;;;;;10542634;28;20055;-73
2023/06/23 13:18:59;;;;;;;13.93;6.93;;;;;;;;;;10542660;28;20035;-73
2023/06/23 13:24:00;;;;;;;10.13;5.80;;;;;;;;;;10541999;28;20050;-72
2023/06/23 13:29:00;;;;;;;13.87;5.80;;;;;;;;;;10542224;28;20023;-72
2023/06/23 13:34:00;;;;;;;13.82;5.55;;;;;;;;;;10541447;28;20058;-72
2023/06/23 13:39:01;;;;;;;13.03;6.50;;;;;;;;;;10542584;28;20290;-72
2023/06/23 13:44:01;;;;;;;13.67;7.13;;;;;;;;;;10541603;28;20026;-72
2023/06/23 13:49:01;;;;;;;13.15;7.10;;;;;;;;;;10541870;28;20234;-72
2023/06/23 13:54:04;;;;;;;15.88;6.78;;;;;;;;;;10522728;28;20028;-72
2023/06/23 13:59:04;;;;;;;15.50;7.18;;;;;;;;;;10541510;28;20020;-73
2023/06/23 14:04:04;;;;;;;12.38;6.40;;;;;;;;;;10541508;28;20028;-72
2023/06/23 14:09:05;;;;;;;13.65;6.10;;;;;;;;;;10540649;28;20322;-72
2023/06/23 14:14:05;;;;;;;13.20;7.10;;;;;;;;;;10523195;28;20035;-72
2023/06/23 14:19:05;;;;;;;15.40;7.45;;;;;;;;;;10539594;28;20281;-72
2023/06/23 14:24:05;;;;;;;12.75;6.28;;;;;;;;;;10510660;28;20036;-72
2023/06/23 14:29:06;;;;;;;10.52;6.15;;;;;;;;;;10522024;28;20069;-72
2023/06/23 14:34:06;;;;;;;14.93;6.20;;;;;;;;;;10540270;28;20367;-73
2023/06/23 14:39:06;;;;;;;15.02;6.82;;;;;;;;;;10539011;28;20126;-73
2023/06/23 14:44:07;;;;;;;9.65;6.55;;;;;;;;;;10539155;28;20088;-73
2023/06/23 14:49:07;;;;;;;18.60;7.70;;;;;;;;;;10538418;28;20047;-73
2023/06/23 14:54:07;;;;;;;12.90;7.03;;;;;;;;;;10538873;28;20020;-72
2023/06/23 14:59:07;;;;;;;14.00;6.97;;;;;;;;;;10537675;28;20027;-72
2023/06/23 15:04:07;;;;;;;16.60;7.03;;;;;;;;;;10539420;28;20008;-74
2023/06/23 15:09:08;;;;;;;15.90;6.72;;;;;;;;;;10534731;28;20091;-74
2023/06/23 15:14:08;;;;;;;15.57;7.10;;;;;;;;;;10538857;28;20214;-74
2023/06/23 15:19:09;;;;;;;15.05;6.88;;;;;;;;;;10539050;28;20360;-73
2023/06/23 15:24:10;;;;;;;15.05;6.32;;;;;;;;;;10538906;28;20023;-73
2023/06/23 15:29:10;;;;;;;13.02;6.38;;;;;;;;;;10538381;28;20083;-73
2023/06/23 15:34:10;;;;;;;12.25;6.63;;;;;;;;;;10538600;28;20012;-73
2023/06/23 15:39:10;;;;;;;13.20;6.65;;;;;;;;;;10544034;28;20348;-73
2023/06/23 15:44:11;;;;;;;13.85;6.18;;;;;;;;;;10546694;28;20051;-74
2023/06/23 15:49:11;;;;;;;10.80;6.22;;;;;;;;;;10546367;28;20087;-73
2023/06/23 15:54:12;;;;;;;10.80;6.50;;;;;;;;;;10546140;28;20079;-73
2023/06/23 15:59:12;;;;;;;11.75;6.20;;;;;;;;;;10528068;28;20186;-73
2023/06/23 16:04:12;;;;;;;16.98;7.70;;;;;;;;;;10545987;28;20081;-73
2023/06/23 16:09:12;;;;;;;10.80;6.60;;;;;;;;;;10545538;28;20217;-73
2023/06/23 16:14:13;;;;;;;13.10;6.20;;;;;;;;;;10545053;28;20080;-73
2023/06/23 16:19:13;;;;;;;10.82;6.05;;;;;;;;;;10544706;28;20080;-73
2023/06/23 16:24:13;;;;;;;14.88;7.15;;;;;;;;;;10545003;28;20322;-73
2023/06/23 16:29:14;;;;;;;13.07;5.90;;;;;;;;;;10544780;28;20124;-73
2023/06/23 16:34:14;;;;;;;9.48;6.00;;;;;;;;;;10544647;28;20343;-73
2023/06/23 16:39:14;;;;;;;11.80;7.20;;;;;;;;;;10543884;28;20332;-73
2023/06/23 16:44:15;;;;;;;15.40;5.93;;;;;;;;;;10544911;28;20016;-73
2023/06/23 16:49:15;;;;;;;10.97;6.23;;;;;;;;;;10542984;28;20040;-73
2023/06/23 16:54:16;;;;;;;11.27;5.35;;;;;;;;;;10543055;28;20020;-73
2023/06/23 16:59:16;;;;;;;12.27;6.95;;;;;;;;;;10528974;28;20019;-73
2023/06/23 17:04:17;;;;;;;12.35;7.45;;;;;;;;;;10525019;28;20020;-73
2023/06/23 17:09:17;;;;;;;13.10;7.70;;;;;;;;;;10542787;28;20233;-74
2023/06/23 17:14:17;;;;;;;12.83;7.33;;;;;;;;;;10543112;28;20202;-73
2023/06/23 17:19:18;;;;;;;16.85;7.15;;;;;;;;;;10543236;28;20026;-73
2023/06/23 17:24:18;;;;;;;15.73;8.60;;;;;;;;;;10543122;28;20048;-73
2023/06/23 17:29:18;;;;;;;16.85;8.60;;;;;;;;;;10542528;28;20032;-73
2023/06/23 17:34:19;;;;;;;20.10;8.25;;;;;;;;;;10542685;28;20179;-74
2023/06/23 17:39:19;;;;;;;15.10;8.57;;;;;;;;;;10542192;28;20369;-74
2023/06/23 17:44:19;;;;;;;13.27;7.95;;;;;;;;;;10523392;28;20103;-73
2023/06/23 17:49:19;;;;;;;16.92;8.60;;;;;;;;;;10537888;28;20211;-73
2023/06/23 17:54:20;;;;;;;13.50;8.98;;;;;;;;;;10542056;28;20314;-73
2023/06/23 17:59:20;;;;;;;18.15;9.80;;;;;;;;;;10541208;28;20028;-72
2023/06/23 18:04:20;;;;;;;14.50;9.23;;;;;;;;;;10541034;28;20234;-73
2023/06/23 18:09:20;;;;;;;13.02;8.48;;;;;;;;;;10541608;28;20027;-73
2023/06/23 18:14:21;;;;;;;12.98;8.13;;;;;;;;;;10541054;28;20024;-73
2023/06/23 18:19:23;;;;;;;16.60;8.93;;;;;;;;;;10540236;28;20017;-73
2023/06/23 18:24:24;;;;;;;14.90;8.93;;;;;;;;;;10540081;28;20040;-73
2023/06/23 18:29:24;;;;;;;12.13;8.23;;;;;;;;;;10530020;28;20253;-73
2023/06/23 18:34:24;;;;;;;13.77;7.63;;;;;;;;;;10535644;28;20218;-72
2023/06/23 18:39:24;;;;;;;13.32;7.70;;;;;;;;;;10540335;28;20103;-73
2023/06/23 18:44:25;;;;;;;15.32;7.80;;;;;;;;;;10540026;28;20313;-72
2023/06/23 18:49:25;;;;;;;12.80;7.60;;;;;;;;;;10521439;28;20052;-73
2023/06/23 18:54:25;;;;;;;11.13;7.63;;;;;;;;;;10539451;28;20027;-73
2023/06/23 18:59:26;;;;;;;14.02;8.38;;;;;;;;;;10518233;28;20205;-73
2023/06/23 19:04:26;;;;;;;14.32;7.88;;;;;;;;;;10539440;28;20023;-72
2023/06/23 19:09:26;;;;;;;12.48;7.63;;;;;;;;;;10538782;28;20024;-72
2023/06/23 19:14:26;;;;;;;14.68;7.97;;;;;;;;;;10545024;28;20043;-72
2023/06/23 19:19:27;;;;;;;13.43;8.70;;;;;;;;;;10530006;28;20234;-73
2023/06/23 19:24:27;;;;;;;11.98;8.25;;;;;;;;;;10547138;28;20275;-73
2023/06/23 19:29:28;;;;;;;13.55;8.15;;;;;;;;;;10547903;28;20155;-73
2023/06/23 19:34:31;;;;;;;19.23;9.63;;;;;;;;;;10547205;28;20027;-73
2023/06/23 19:39:31;;;;;;;15.80;8.48;;;;;;;;;;10528704;28;20542;-73
2023/06/23 19:44:31;;;;;;;21.38;8.73;;;;;;;;;;10546904;28;20043;-74
2023/06/23 19:49:31;;;;;;;14.63;10.27;;;;;;;;;;10528766;28;20062;-72
2023/06/23 19:54:32;;;;;;;20.27;9.13;;;;;;;;;;10546199;28;20028;-73
2023/06/23 19:59:32;;;;;;;19.25;9.93;;;;;;;;;;10546442;28;20027;-72
2023/06/23 20:04:32;;;;;;;15.40;8.90;;;;;;;;;;10541442;28;20017;-73
2023/06/23 20:09:33;;;;;;;13.68;8.48;;;;;;;;;;10535125;28;20012;-73
2023/06/23 20:14:33;;;;;;;14.48;8.77;;;;;;;;;;10545148;28;20218;-73
2023/06/23 20:19:33;;;;;;;12.15;8.77;;;;;;;;;;10545771;28;20043;-74
2023/06/23 20:24:34;;;;;;;22.92;9.75;;;;;;;;;;10536195;28;20052;-73
2023/06/23 20:29:34;;;;;;;14.50;8.70;;;;;;;;;;10539612;28;20214;-73
2023/06/23 20:34:34;;;;;;;17.67;9.93;;;;;;;;;;10545139;28;20012;-72
2023/06/23 20:39:35;;;;;;;16.92;10.38;;;;;;;;;;10545059;28;20313;-72
2023/06/23 20:44:35;;;;;;;14.52;9.73;;;;;;;;;;10544165;28;20027;-72
2023/06/23 20:49:35;;;;;;;12.63;9.65;;;;;;;;;;10530319;28;20027;-72
2023/06/23 20:54:36;;;;;;;13.15;9.63;;;;;;;;;;10526239;28;20019;-73
2023/06/23 20:59:36;;;;;;;11.32;8.32;;;;;;;;;;10543603;28;20023;-72
2023/06/23 21:04:36;;;;;;;14.27;9.90;;;;;;;;;;10543693;28;20020;-73
2023/06/23 21:09:37;;;;;;;14.75;10.10;;;;;;;;;;10542254;28;20011;-73
2023/06/23 21:14:37;;;;;;;20.90;13.40;;;;;;;;;;10542945;28;20079;-72
2023/06/23 21:19:37;;;;;;;18.37;10.17;;;;;;;;;;10543552;28;20305;-72
2023/06/23 21:24:37;;;;;;;16.90;10.10;;;;;;;;;;10524088;28;20032;-73
2023/06/23 21:29:38;;;;;;;14.40;9.60;;;;;;;;;;10542876;28;20035;-73
2023/06/23 21:34:38;;;;;;;17.00;9.85;;;;;;;;;;10541531;28;20043;-72
2023/06/23 21:39:38;;;;;;;15.30;10.30;;;;;;;;;;10524188;28;20322;-73
2023/06/23 21:44:39;;;;;;;16.37;11.27;;;;;;;;;;10542331;28;20289;-73
2023/06/23 21:49:40;;;;;;;17.38;10.05;;;;;;;;;;10541438;28;20028;-73
2023/06/23 21:54:40;;;;;;;14.60;10.50;;;;;;;;;;10541583;28;20023;-73
2023/06/23 21:59:40;;;;;;;13.13;9.43;;;;;;;;;;10541419;28;20020;-73
2023/06/23 22:04:41;;;;;;;19.60;10.68;;;;;;;;;;10541166;28;20269;-73
2023/06/23 22:09:41;;;;;;;15.23;10.18;;;;;;;;;;10539883;28;20020;-72
2023/06/23 22:14:41;;;;;;;13.57;9.57;;;;;;;;;;10540628;28;20048;-73
2023/06/23 22:19:41;;;;;;;18.73;10.17;;;;;;;;;;10540732;28;20118;-73
2023/06/23 22:24:42;;;;;;;14.48;10.13;;;;;;;;;;10540313;28;20043;-73
2023/06/23 22:29:42;;;;;;;16.73;9.57;;;;;;;;;;10540192;28;20024;-73
2023/06/23 22:34:42;;;;;;;15.07;10.30;;;;;;;;;;10540602;28;20401;-73
2023/06/23 22:39:43;;;;;;;13.07;8.80;;;;;;;;;;10540399;28;20218;-73
2023/06/23 22:44:43;;;;;;;18.88;10.93;;;;;;;;;;10539620;28;20213;-73
2023/06/23 22:49:43;;;;;;;14.45;9.40;;;;;;;;;;10539622;28;20020;-73
2023/06/23 22:54:44;;;;;;;20.02;10.35;;;;;;;;;;10539563;28;20024;-73
2023/06/23 22:59:44;;;;;;;15.55;11.57;;;;;;;;;;10539956;28;20084;-73
2023/06/23 23:04:44;;;;;;;17.40;10.35;;;;;;;;;;10539944;28;20079;-73
2023/06/23 23:09:44;;;;;;;15.70;10.60;;;;;;;;;;10521798;28;20277;-73
2023/06/23 23:14:45;;;;;;;16.08;9.98;;;;;;;;;;10539210;28;20078;-73
2023/06/23 23:19:45;;;;;;;17.23;11.27;;;;;;;;;;10539343;28;20016;-73
2023/06/23 23:24:45;;;;;;;16.33;9.73;;;;;;;;;;10539739;28;20039;-73
2023/06/23 23:29:50;;;;;;;13.57;10.52;;;;;;;;;;10538638;28;20028;-73
2023/06/23 23:34:50;;;;;;;15.98;11.00;;;;;;;;;;10473353;28;20027;-73
2023/06/23 23:39:51;;;;;;;18.70;11.23;;;;;;;;;;10521196;28;20418;-73
2023/06/23 23:44:51;;;;;;;15.48;10.82;;;;;;;;;;10533309;28;20024;-73
2023/06/23 23:49:52;;;;;;;18.73;11.10;;;;;;;;;;10496345;28;20016;-73
2023/06/23 23:54:53;;;;;;;13.77;10.35;;;;;;;;;;10536642;28;20273;-73
2023/06/23 23:59:53;;;;;;;17.50;11.00;;;;;;;;;;10542643;28;20242;-73
